PWSweather.com
Personal Weather Stations
Station Observations
KPAMECHA5
Mechanicsburg, PA 17050

Mechanicsburg, PA 17050

Lat: 40.21531, Lon: -77.0395

Elevation: 430

Station Type: Davis 6322

http://MechanicsburgWeather.com

Latest ConditionsUpdated 8:40:04 PM EDT Wednesday, Apr 23, 2014
Currently Today's Max Today's Min Today's Average
Temperature 45.6°F7.6°C 54.8°F12.7°C 45.4°F7.4°C 49.3°F9.6°C
Dew Point 33.3°F0.7°C 41.3°F5.2°C 33.3°F0.7°C 37.7°F3.2°C
Winds 4.6 mph N7.4 kmh N 13.7 mph WNW22.0 kmh WNW - 8.1 mph 13.0 kmh
Wind Gusts 14.0 mph22.5 kmh 25.0 mph40.2 kmh - -
Humidity 62% 69% 58% 64%
Pressure 29.88 in1011.9 mb 29.88 in1011.9 mb 29.62 in1003.0 mb -
Hour Temp Dew Point Humidity Winds Wind Gusts Pressure Precip Precip Rate Daily Precip Total
08:40 PM 45.6°F7.6°C 33.3°F0.7°C 62% 4.6 mph N7.4 kmh N 14.0 mph22.5 kmh 29.88 in1011.9 mb 0.00 in0.0 mm 0.00 in/hr0.0 mm/hr 0.00 in0.0 mm
08:30 PM 45.7°F7.6°C 33.4°F0.8°C 62% 4.3 mph NNW6.9 kmh NNW 6.0 mph9.7 kmh 29.88 in1011.9 mb 0.00 in0.0 mm 0.00 in/hr0.0 mm/hr 0.00 in0.0 mm
08:20 PM 45.9°F7.7°C 33.6°F0.9°C 62% 5.5 mph NNW8.9 kmh NNW 7.0 mph11.3 kmh 29.88 in1011.9 mb 0.00 in0.0 mm 0.00 in/hr0.0 mm/hr 0.00 in0.0 mm
08:10 PM 46.0°F7.8°C 33.7°F0.9°C 62% 3.3 mph NW5.3 kmh NW 7.0 mph11.3 kmh 29.87 in1011.5 mb 0.00 in0.0 mm 0.00 in/hr0.0 mm/hr 0.00 in0.0 mm
08:00 PM 46.2°F7.9°C 34.3°F1.3°C 63% 4.5 mph WSW7.2 kmh WSW 8.0 mph12.9 kmh 29.86 in1011.2 mb 0.00 in0.0 mm 0.00 in/hr0.0 mm/hr 0.00 in0.0 mm
07:50 PM 46.5°F8.1°C 34.2°F1.2°C 62% 7.1 mph NW11.4 kmh NW 9.0 mph14.5 kmh 29.86 in1011.2 mb 0.00 in0.0 mm 0.00 in/hr0.0 mm/hr 0.00 in0.0 mm
07:40 PM 47.0°F8.3°C 35.0°F1.7°C 63% 10.0 mph NNW16.1 kmh NNW 15.0 mph24.1 kmh 29.86 in1011.2 mb 0.00 in0.0 mm 0.00 in/hr0.0 mm/hr 0.00 in0.0 mm
07:30 PM 47.2°F8.4°C 35.6°F2.0°C 64% 6.4 mph NNW10.3 kmh NNW 11.0 mph17.7 kmh 29.85 in1010.8 mb 0.00 in0.0 mm 0.00 in/hr0.0 mm/hr 0.00 in0.0 mm
07:20 PM 47.3°F8.5°C 35.8°F2.1°C 64% 7.9 mph N12.7 kmh N 15.0 mph24.1 kmh 29.85 in1010.8 mb 0.00 in0.0 mm 0.00 in/hr0.0 mm/hr 0.00 in0.0 mm
07:10 PM 47.5°F8.6°C 35.9°F2.2°C 64% 6.8 mph NW10.9 kmh NW 13.0 mph20.9 kmh 29.85 in1010.8 mb 0.00 in0.0 mm 0.00 in/hr0.0 mm/hr 0.00 in0.0 mm
07:00 PM 47.7°F8.7°C 36.1°F2.3°C 64% 9.0 mph N14.5 kmh N 12.0 mph19.3 kmh 29.84 in1010.5 mb 0.00 in0.0 mm 0.00 in/hr0.0 mm/hr 0.00 in0.0 mm
06:50 PM 48.1°F8.9°C 36.9°F2.7°C 65% 10.1 mph N16.3 kmh N 16.0 mph25.7 kmh 29.84 in1010.5 mb 0.00 in0.0 mm 0.00 in/hr0.0 mm/hr 0.00 in0.0 mm
06:40 PM 48.6°F9.2°C 37.0°F2.8°C 64% 9.2 mph NW14.8 kmh NW 14.0 mph22.5 kmh 29.84 in1010.5 mb 0.00 in0.0 mm 0.00 in/hr0.0 mm/hr 0.00 in0.0 mm
06:30 PM 49.7°F9.8°C 37.6°F3.1°C 63% 8.7 mph NW14.0 kmh NW 19.0 mph30.6 kmh 29.84 in1010.5 mb 0.00 in0.0 mm 0.00 in/hr0.0 mm/hr 0.00 in0.0 mm
06:20 PM 49.9°F9.9°C 37.8°F3.2°C 63% 8.0 mph N12.9 kmh N 13.0 mph20.9 kmh 29.83 in1010.2 mb 0.00 in0.0 mm 0.00 in/hr0.0 mm/hr 0.00 in0.0 mm
06:10 PM 49.5°F9.7°C 37.8°F3.2°C 64% 9.2 mph S14.8 kmh S 15.0 mph24.1 kmh 29.83 in1010.2 mb 0.00 in0.0 mm 0.00 in/hr0.0 mm/hr 0.00 in0.0 mm
06:00 PM 50.0°F10.0°C 37.4°F3.0°C 62% 5.7 mph NNW9.2 kmh NNW 20.0 mph32.2 kmh 29.82 in1009.8 mb 0.00 in0.0 mm 0.00 in/hr0.0 mm/hr 0.00 in0.0 mm
05:50 PM 50.8°F10.4°C 38.7°F3.7°C 63% 6.7 mph NNW10.8 kmh NNW 13.0 mph20.9 kmh 29.82 in1009.8 mb 0.00 in0.0 mm 0.00 in/hr0.0 mm/hr 0.00 in0.0 mm
05:40 PM 50.5°F10.3°C 38.4°F3.6°C 63% 10.4 mph WSW16.7 kmh WSW 18.0 mph29.0 kmh 29.81 in1009.5 mb 0.00 in0.0 mm 0.00 in/hr0.0 mm/hr 0.00 in0.0 mm
05:30 PM 50.8°F10.4°C 37.8°F3.2°C 61% 7.8 mph N12.6 kmh N 10.0 mph16.1 kmh 29.81 in1009.5 mb 0.00 in0.0 mm 0.00 in/hr0.0 mm/hr 0.00 in0.0 mm
05:20 PM 51.8°F11.0°C 38.8°F3.8°C 61% 9.5 mph NNW15.3 kmh NNW 18.0 mph29.0 kmh 29.80 in1009.1 mb 0.00 in0.0 mm 0.00 in/hr0.0 mm/hr 0.00 in0.0 mm
05:10 PM 52.2°F11.2°C 38.7°F3.7°C 60% 13.6 mph NNW21.9 kmh NNW 23.0 mph37.0 kmh 29.80 in1009.1 mb 0.00 in0.0 mm 0.00 in/hr0.0 mm/hr 0.00 in0.0 mm
05:00 PM 52.3°F11.3°C 39.3°F4.1°C 61% 10.1 mph NW16.3 kmh NW 16.0 mph25.7 kmh 29.79 in1008.8 mb 0.00 in0.0 mm 0.00 in/hr0.0 mm/hr 0.00 in0.0 mm
04:50 PM 52.2°F11.2°C 38.7°F3.7°C 60% 11.6 mph N18.7 kmh N 21.0 mph33.8 kmh 29.79 in1008.8 mb 0.00 in0.0 mm 0.00 in/hr0.0 mm/hr 0.00 in0.0 mm
04:40 PM 52.1°F11.2°C 39.0°F3.9°C 61% 9.8 mph N15.8 kmh N 13.0 mph20.9 kmh 29.79 in1008.8 mb 0.00 in0.0 mm 0.00 in/hr0.0 mm/hr 0.00 in0.0 mm
04:30 PM 52.4°F11.3°C 39.0°F3.9°C 60% 12.2 mph NNW19.6 kmh NNW 18.0 mph29.0 kmh 29.79 in1008.8 mb 0.00 in0.0 mm 0.00 in/hr0.0 mm/hr 0.00 in0.0 mm
04:20 PM 53.3°F11.8°C 39.7°F4.3°C 60% 11.6 mph WNW18.7 kmh WNW 16.0 mph25.7 kmh 29.78 in1008.5 mb 0.00 in0.0 mm 0.00 in/hr0.0 mm/hr 0.00 in0.0 mm
04:10 PM 53.2°F11.8°C 40.5°F4.7°C 62% 7.0 mph NW11.3 kmh NW 13.0 mph20.9 kmh 29.78 in1008.5 mb 0.00 in0.0 mm 0.00 in/hr0.0 mm/hr 0.00 in0.0 mm
04:00 PM 52.9°F11.6°C 39.8°F4.3°C 61% 11.5 mph N18.5 kmh N 21.0 mph33.8 kmh 29.79 in1008.8 mb 0.00 in0.0 mm 0.00 in/hr0.0 mm/hr 0.00 in0.0 mm
03:50 PM 53.5°F11.9°C 39.5°F4.2°C 59% 12.0 mph NW19.3 kmh NW 22.0 mph35.4 kmh 29.78 in1008.5 mb 0.00 in0.0 mm 0.00 in/hr0.0 mm/hr 0.00 in0.0 mm
03:40 PM 54.6°F12.6°C 40.6°F4.8°C 59% 11.3 mph E18.2 kmh E 22.0 mph35.4 kmh 29.77 in1008.1 mb 0.00 in0.0 mm 0.00 in/hr0.0 mm/hr 0.00 in0.0 mm
03:30 PM 54.7°F12.6°C 40.6°F4.8°C 59% 12.3 mph NNW19.8 kmh NNW 20.0 mph32.2 kmh 29.77 in1008.1 mb 0.00 in0.0 mm 0.00 in/hr0.0 mm/hr 0.00 in0.0 mm
03:20 PM 54.5°F12.5°C 41.3°F5.2°C 61% 7.8 mph NW12.6 kmh NW 19.0 mph30.6 kmh 29.77 in1008.1 mb 0.00 in0.0 mm 0.00 in/hr0.0 mm/hr 0.00 in0.0 mm
03:10 PM 54.5°F12.5°C 40.5°F4.7°C 59% 11.0 mph WNW17.7 kmh WNW 18.0 mph29.0 kmh 29.77 in1008.1 mb 0.00 in0.0 mm 0.00 in/hr0.0 mm/hr 0.00 in0.0 mm
03:00 PM 54.8°F12.7°C 40.3°F4.6°C 58% 8.1 mph NNW13.0 kmh NNW 18.0 mph29.0 kmh 29.77 in1008.1 mb 0.00 in0.0 mm 0.00 in/hr0.0 mm/hr 0.00 in0.0 mm
02:50 PM 54.7°F12.6°C 40.2°F4.6°C 58% 11.8 mph NNW19.0 kmh NNW 15.0 mph24.1 kmh 29.76 in1007.8 mb 0.00 in0.0 mm 0.00 in/hr0.0 mm/hr 0.00 in0.0 mm
02:40 PM 54.6°F12.6°C 41.0°F5.0°C 60% 9.6 mph NNW15.4 kmh NNW 20.0 mph32.2 kmh 29.76 in1007.8 mb 0.00 in0.0 mm 0.00 in/hr0.0 mm/hr 0.00 in0.0 mm
02:30 PM 54.4°F12.4°C 39.9°F4.4°C 58% 12.5 mph N20.1 kmh N 20.0 mph32.2 kmh 29.76 in1007.8 mb 0.00 in0.0 mm 0.00 in/hr0.0 mm/hr 0.00 in0.0 mm
02:20 PM 54.1°F12.3°C 40.1°F4.5°C 59% 12.1 mph N19.5 kmh N 16.0 mph25.7 kmh 29.76 in1007.8 mb 0.00 in0.0 mm 0.00 in/hr0.0 mm/hr 0.00 in0.0 mm
02:10 PM 54.1°F12.3°C 40.1°F4.5°C 59% 12.4 mph W20.0 kmh W 21.0 mph33.8 kmh 29.76 in1007.8 mb 0.00 in0.0 mm 0.00 in/hr0.0 mm/hr 0.00 in0.0 mm
02:00 PM 53.5°F11.9°C 40.8°F4.9°C 62% 7.1 mph NNW11.4 kmh NNW 13.0 mph20.9 kmh 29.75 in1007.5 mb 0.00 in0.0 mm 0.00 in/hr0.0 mm/hr 0.00 in0.0 mm
01:50 PM 53.3°F11.8°C 40.2°F4.6°C 61% 7.3 mph NW11.7 kmh NW 12.0 mph19.3 kmh 29.76 in1007.8 mb 0.00 in0.0 mm 0.00 in/hr0.0 mm/hr 0.00 in0.0 mm
01:40 PM 52.6°F11.4°C 39.5°F4.2°C 61% 8.6 mph NNE13.8 kmh NNE 21.0 mph33.8 kmh 29.76 in1007.8 mb 0.00 in0.0 mm 0.00 in/hr0.0 mm/hr 0.00 in0.0 mm
01:30 PM 51.1°F10.6°C 38.9°F3.8°C 63% 8.9 mph NW14.3 kmh NW 12.0 mph19.3 kmh 29.76 in1007.8 mb 0.00 in0.0 mm 0.00 in/hr0.0 mm/hr 0.00 in0.0 mm
01:20 PM 50.5°F10.3°C 38.4°F3.6°C 63% 4.5 mph SW7.2 kmh SW 7.0 mph11.3 kmh 29.76 in1007.8 mb 0.00 in0.0 mm 0.00 in/hr0.0 mm/hr 0.00 in0.0 mm
01:10 PM 50.7°F10.4°C 39.0°F3.9°C 64% 6.4 mph W10.3 kmh W 15.0 mph24.1 kmh 29.76 in1007.8 mb 0.00 in0.0 mm 0.00 in/hr0.0 mm/hr 0.00 in0.0 mm
01:00 PM 50.8°F10.4°C 38.7°F3.7°C 63% 6.4 mph WNW10.3 kmh WNW 16.0 mph25.7 kmh 29.76 in1007.8 mb 0.00 in0.0 mm 0.00 in/hr0.0 mm/hr 0.00 in0.0 mm
12:50 PM 51.1°F10.6°C 38.9°F3.8°C 63% 4.2 mph WSW6.8 kmh WSW 16.0 mph25.7 kmh 29.76 in1007.8 mb 0.00 in0.0 mm 0.00 in/hr0.0 mm/hr 0.00 in0.0 mm
12:40 PM 51.6°F10.9°C 38.6°F3.7°C 61% 9.3 mph N15.0 kmh N 15.0 mph24.1 kmh 29.75 in1007.5 mb 0.00 in0.0 mm 0.00 in/hr0.0 mm/hr 0.00 in0.0 mm
12:30 PM 52.0°F11.1°C 39.8°F4.3°C 63% 5.1 mph W8.2 kmh W 11.0 mph17.7 kmh 29.74 in1007.1 mb 0.00 in0.0 mm 0.00 in/hr0.0 mm/hr 0.00 in0.0 mm
12:20 PM 52.7°F11.5°C 39.6°F4.2°C 61% 11.2 mph NNE18.0 kmh NNE 16.0 mph25.7 kmh 29.74 in1007.1 mb 0.00 in0.0 mm 0.00 in/hr0.0 mm/hr 0.00 in0.0 mm
12:10 PM 52.5°F11.4°C 40.3°F4.6°C 63% 8.3 mph NW13.4 kmh NW 22.0 mph35.4 kmh 29.74 in1007.1 mb 0.00 in0.0 mm 0.00 in/hr0.0 mm/hr 0.00 in0.0 mm
12:00 PM 52.1°F11.2°C 39.5°F4.2°C 62% 11.2 mph NW18.0 kmh NW 22.0 mph35.4 kmh 29.74 in1007.1 mb 0.00 in0.0 mm 0.00 in/hr0.0 mm/hr 0.00 in0.0 mm
11:50 AM 51.7°F10.9°C 39.1°F3.9°C 62% 10.3 mph NW16.6 kmh NW 18.0 mph29.0 kmh 29.73 in1006.8 mb 0.00 in0.0 mm 0.00 in/hr0.0 mm/hr 0.00 in0.0 mm
11:40 AM 51.5°F10.8°C 38.5°F3.6°C 61% 12.7 mph N20.4 kmh N 16.0 mph25.7 kmh 29.73 in1006.8 mb 0.00 in0.0 mm 0.00 in/hr0.0 mm/hr 0.00 in0.0 mm
11:30 AM 51.0°F10.6°C 38.4°F3.6°C 62% 11.4 mph WNW18.3 kmh WNW 15.0 mph24.1 kmh 29.74 in1007.1 mb 0.00 in0.0 mm 0.00 in/hr0.0 mm/hr 0.00 in0.0 mm
11:20 AM 51.2°F10.7°C 38.6°F3.7°C 62% 11.9 mph NW19.2 kmh NW 20.0 mph32.2 kmh 29.74 in1007.1 mb 0.00 in0.0 mm 0.00 in/hr0.0 mm/hr 0.00 in0.0 mm
11:10 AM 50.9°F10.5°C 38.8°F3.8°C 63% 10.9 mph N17.5 kmh N 16.0 mph25.7 kmh 29.74 in1007.1 mb 0.00 in0.0 mm 0.00 in/hr0.0 mm/hr 0.00 in0.0 mm
11:00 AM 50.6°F10.3°C 38.9°F3.8°C 64% 10.0 mph N16.1 kmh N 16.0 mph25.7 kmh 29.74 in1007.1 mb 0.00 in0.0 mm 0.00 in/hr0.0 mm/hr 0.00 in0.0 mm
10:50 AM 50.5°F10.3°C 38.0°F3.3°C 62% 13.1 mph W21.1 kmh W 22.0 mph35.4 kmh 29.74 in1007.1 mb 0.00 in0.0 mm 0.00 in/hr0.0 mm/hr 0.00 in0.0 mm
10:40 AM 50.2°F10.1°C 38.1°F3.4°C 63% 12.2 mph NW19.6 kmh NW 21.0 mph33.8 kmh 29.74 in1007.1 mb 0.00 in0.0 mm 0.00 in/hr0.0 mm/hr 0.00 in0.0 mm
10:30 AM 49.7°F9.8°C 38.0°F3.3°C 64% 9.4 mph NW15.1 kmh NW 15.0 mph24.1 kmh 29.73 in1006.8 mb 0.00 in0.0 mm 0.00 in/hr0.0 mm/hr 0.00 in0.0 mm
10:20 AM 49.5°F9.7°C 38.2°F3.4°C 65% 11.8 mph WNW19.0 kmh WNW 20.0 mph32.2 kmh 29.73 in1006.8 mb 0.00 in0.0 mm 0.00 in/hr0.0 mm/hr 0.00 in0.0 mm
10:10 AM 49.4°F9.7°C 37.7°F3.2°C 64% 12.9 mph N20.8 kmh N 16.0 mph25.7 kmh 29.73 in1006.8 mb 0.00 in0.0 mm 0.00 in/hr0.0 mm/hr 0.00 in0.0 mm
10:00 AM 49.0°F9.4°C 37.7°F3.2°C 65% 12.6 mph N20.3 kmh N 24.0 mph38.6 kmh 29.73 in1006.8 mb 0.00 in0.0 mm 0.00 in/hr0.0 mm/hr 0.00 in0.0 mm
09:50 AM 48.9°F9.4°C 37.6°F3.1°C 65% 13.1 mph N21.1 kmh N 19.0 mph30.6 kmh 29.72 in1006.4 mb 0.00 in0.0 mm 0.00 in/hr0.0 mm/hr 0.00 in0.0 mm
09:40 AM 48.3°F9.1°C 37.1°F2.8°C 65% 13.7 mph WNW22.0 kmh WNW 20.0 mph32.2 kmh 29.72 in1006.4 mb 0.00 in0.0 mm 0.00 in/hr0.0 mm/hr 0.00 in0.0 mm
09:30 AM 48.1°F8.9°C 37.7°F3.2°C 67% 11.0 mph W17.7 kmh W 20.0 mph32.2 kmh 29.72 in1006.4 mb 0.00 in0.0 mm 0.00 in/hr0.0 mm/hr 0.00 in0.0 mm
09:20 AM 48.1°F8.9°C 37.3°F2.9°C 66% 11.7 mph E18.8 kmh E 21.0 mph33.8 kmh 29.71 in1006.1 mb 0.00 in0.0 mm 0.00 in/hr0.0 mm/hr 0.00 in0.0 mm
09:10 AM 47.8°F8.8°C 37.0°F2.8°C 66% 11.5 mph NNW18.5 kmh NNW 16.0 mph25.7 kmh 29.72 in1006.4 mb 0.00 in0.0 mm 0.00 in/hr0.0 mm/hr 0.00 in0.0 mm
09:00 AM 47.9°F8.8°C 36.7°F2.6°C 65% 12.4 mph NW20.0 kmh NW 25.0 mph40.2 kmh 29.71 in1006.1 mb 0.00 in0.0 mm 0.00 in/hr0.0 mm/hr 0.00 in0.0 mm
08:50 AM 47.5°F8.6°C 36.7°F2.6°C 66% 9.8 mph NW15.8 kmh NW 16.0 mph25.7 kmh 29.71 in1006.1 mb 0.00 in0.0 mm 0.00 in/hr0.0 mm/hr 0.00 in0.0 mm
08:40 AM 47.2°F8.4°C 36.0°F2.2°C 65% 6.8 mph NW10.9 kmh NW 20.0 mph32.2 kmh 29.71 in1006.1 mb 0.00 in0.0 mm 0.00 in/hr0.0 mm/hr 0.00 in0.0 mm
08:30 AM 47.3°F8.5°C 36.1°F2.3°C 65% 9.2 mph N14.8 kmh N 21.0 mph33.8 kmh 29.70 in1005.8 mb 0.00 in0.0 mm 0.00 in/hr0.0 mm/hr 0.00 in0.0 mm
08:20 AM 46.8°F8.2°C 36.4°F2.4°C 67% 8.0 mph WNW12.9 kmh WNW 16.0 mph25.7 kmh 29.71 in1006.1 mb 0.00 in0.0 mm 0.00 in/hr0.0 mm/hr 0.00 in0.0 mm
08:10 AM 46.1°F7.8°C 35.4°F1.9°C 66% 11.7 mph NW18.8 kmh NW 24.0 mph38.6 kmh 29.71 in1006.1 mb 0.00 in0.0 mm 0.00 in/hr0.0 mm/hr 0.00 in0.0 mm
08:00 AM 46.0°F7.8°C 35.7°F2.1°C 67% 9.0 mph NNE14.5 kmh NNE 12.0 mph19.3 kmh 29.71 in1006.1 mb 0.00 in0.0 mm 0.00 in/hr0.0 mm/hr 0.00 in0.0 mm
07:50 AM 45.6°F7.6°C 35.3°F1.8°C 67% 10.8 mph W17.4 kmh W 16.0 mph25.7 kmh 29.71 in1006.1 mb 0.00 in0.0 mm 0.00 in/hr0.0 mm/hr 0.00 in0.0 mm
07:40 AM 45.5°F7.5°C 35.2°F1.8°C 67% 9.9 mph NW15.9 kmh NW 16.0 mph25.7 kmh 29.70 in1005.8 mb 0.00 in0.0 mm 0.00 in/hr0.0 mm/hr 0.00 in0.0 mm
07:30 AM 45.4°F7.4°C 35.1°F1.7°C 67% 7.7 mph N12.4 kmh N 13.0 mph20.9 kmh 29.70 in1005.8 mb 0.00 in0.0 mm 0.00 in/hr0.0 mm/hr 0.00 in0.0 mm
07:20 AM 45.5°F7.5°C 35.2°F1.8°C 67% 10.7 mph NE17.2 kmh NE 19.0 mph30.6 kmh 29.68 in1005.1 mb 0.00 in0.0 mm 0.00 in/hr0.0 mm/hr 0.00 in0.0 mm
07:10 AM 45.4°F7.4°C 35.1°F1.7°C 67% 9.2 mph NNW14.8 kmh NNW 13.0 mph20.9 kmh 29.68 in1005.1 mb 0.00 in0.0 mm 0.00 in/hr0.0 mm/hr 0.00 in0.0 mm
07:00 AM 45.4°F7.4°C 35.1°F1.7°C 67% 9.2 mph NNW14.8 kmh NNW 11.0 mph17.7 kmh 29.68 in1005.1 mb 0.00 in0.0 mm 0.00 in/hr0.0 mm/hr 0.00 in0.0 mm
06:50 AM 45.5°F7.5°C 35.2°F1.8°C 67% 7.6 mph NW12.2 kmh NW 11.0 mph17.7 kmh 29.68 in1005.1 mb 0.00 in0.0 mm 0.00 in/hr0.0 mm/hr 0.00 in0.0 mm
06:40 AM 45.6°F7.6°C 35.6°F2.0°C 68% 5.8 mph N9.3 kmh N 8.0 mph12.9 kmh 29.68 in1005.1 mb 0.00 in0.0 mm 0.00 in/hr0.0 mm/hr 0.00 in0.0 mm
06:30 AM 45.5°F7.5°C 35.5°F1.9°C 68% 10.9 mph NW17.5 kmh NW 16.0 mph25.7 kmh 29.67 in1004.7 mb 0.00 in0.0 mm 0.00 in/hr0.0 mm/hr 0.00 in0.0 mm
06:20 AM 45.5°F7.5°C 35.5°F1.9°C 68% 9.5 mph NNW15.3 kmh NNW 16.0 mph25.7 kmh 29.66 in1004.4 mb 0.00 in0.0 mm 0.00 in/hr0.0 mm/hr 0.00 in0.0 mm
06:10 AM 45.7°F7.6°C 35.4°F1.9°C 67% 11.9 mph NW19.2 kmh NW 19.0 mph30.6 kmh 29.65 in1004.1 mb 0.00 in0.0 mm 0.00 in/hr0.0 mm/hr 0.00 in0.0 mm
06:00 AM 45.9°F7.7°C 35.9°F2.2°C 68% 9.9 mph NNW15.9 kmh NNW 18.0 mph29.0 kmh 29.65 in1004.1 mb 0.00 in0.0 mm 0.00 in/hr0.0 mm/hr 0.00 in0.0 mm
05:50 AM 46.0°F7.8°C 36.4°F2.4°C 69% 10.3 mph NW16.6 kmh NW 18.0 mph29.0 kmh 29.65 in1004.1 mb 0.00 in0.0 mm 0.00 in/hr0.0 mm/hr 0.00 in0.0 mm
05:40 AM 46.2°F7.9°C 36.6°F2.6°C 69% 11.4 mph NW18.3 kmh NW 18.0 mph29.0 kmh 29.64 in1003.7 mb 0.00 in0.0 mm 0.00 in/hr0.0 mm/hr 0.00 in0.0 mm
05:30 AM 46.5°F8.1°C 36.5°F2.5°C 68% 9.8 mph NW15.8 kmh NW 13.0 mph20.9 kmh 29.64 in1003.7 mb 0.00 in0.0 mm 0.00 in/hr0.0 mm/hr 0.00 in0.0 mm
05:20 AM 46.9°F8.3°C 36.9°F2.7°C 68% 9.4 mph NW15.1 kmh NW 13.0 mph20.9 kmh 29.64 in1003.7 mb 0.00 in0.0 mm 0.00 in/hr0.0 mm/hr 0.00 in0.0 mm
05:10 AM 47.2°F8.4°C 36.8°F2.7°C 67% 6.1 mph NW9.8 kmh NW 10.0 mph16.1 kmh 29.64 in1003.7 mb 0.00 in0.0 mm 0.00 in/hr0.0 mm/hr 0.00 in0.0 mm
05:00 AM 47.5°F8.6°C 37.1°F2.8°C 67% 3.5 mph WSW5.6 kmh WSW 7.0 mph11.3 kmh 29.64 in1003.7 mb 0.00 in0.0 mm 0.00 in/hr0.0 mm/hr 0.00 in0.0 mm
04:50 AM 47.7°F8.7°C 36.9°F2.7°C 66% 7.4 mph NW11.9 kmh NW 11.0 mph17.7 kmh 29.64 in1003.7 mb 0.00 in0.0 mm 0.00 in/hr0.0 mm/hr 0.00 in0.0 mm
04:40 AM 47.7°F8.7°C 36.9°F2.7°C 66% 7.0 mph WSW11.3 kmh WSW 12.0 mph19.3 kmh 29.64 in1003.7 mb 0.00 in0.0 mm 0.00 in/hr0.0 mm/hr 0.00 in0.0 mm
04:30 AM 48.0°F8.9°C 37.2°F2.9°C 66% 2.6 mph NE4.2 kmh NE 10.0 mph16.1 kmh 29.64 in1003.7 mb 0.00 in0.0 mm 0.00 in/hr0.0 mm/hr 0.00 in0.0 mm
04:20 AM 48.1°F8.9°C 36.9°F2.7°C 65% 12.0 mph WNW19.3 kmh WNW 19.0 mph30.6 kmh 29.62 in1003.0 mb 0.00 in0.0 mm 0.00 in/hr0.0 mm/hr 0.00 in0.0 mm
04:10 AM 47.9°F8.8°C 37.0°F2.8°C 66% 7.8 mph N12.6 kmh N 15.0 mph24.1 kmh 29.62 in1003.0 mb 0.00 in0.0 mm 0.00 in/hr0.0 mm/hr 0.00 in0.0 mm
04:00 AM 48.0°F8.9°C 37.6°F3.1°C 67% 4.3 mph NNW6.9 kmh NNW 6.0 mph9.7 kmh 29.62 in1003.0 mb 0.00 in0.0 mm 0.00 in/hr0.0 mm/hr 0.00 in0.0 mm
03:50 AM 48.2°F9.0°C 37.4°F3.0°C 66% 5.8 mph NW9.3 kmh NW 14.0 mph22.5 kmh 29.62 in1003.0 mb 0.00 in0.0 mm 0.00 in/hr0.0 mm/hr 0.00 in0.0 mm
03:40 AM 48.2°F9.0°C 37.8°F3.2°C 67% 2.1 mph W3.4 kmh W 6.0 mph9.7 kmh 29.62 in1003.0 mb 0.00 in0.0 mm 0.00 in/hr0.0 mm/hr 0.00 in0.0 mm
03:30 AM 48.4°F9.1°C 37.9°F3.3°C 67% 2.9 mph NNE4.7 kmh NNE 5.0 mph8.0 kmh 29.62 in1003.0 mb 0.00 in0.0 mm 0.00 in/hr0.0 mm/hr 0.00 in0.0 mm
03:20 AM 48.3°F9.1°C 37.8°F3.2°C 67% 2.3 mph NW3.7 kmh NW 7.0 mph11.3 kmh 29.62 in1003.0 mb 0.00 in0.0 mm 0.00 in/hr0.0 mm/hr 0.00 in0.0 mm
03:10 AM 48.4°F9.1°C 37.6°F3.1°C 66% 0.6 mph NW1.0 kmh NW 2.0 mph3.2 kmh 29.62 in1003.0 mb 0.00 in0.0 mm 0.00 in/hr0.0 mm/hr 0.00 in0.0 mm
03:00 AM 48.8°F9.3°C 37.9°F3.3°C 66% 1.5 mph N2.4 kmh N 5.0 mph8.0 kmh 29.62 in1003.0 mb 0.00 in0.0 mm 0.00 in/hr0.0 mm/hr 0.00 in0.0 mm
02:50 AM 48.8°F9.3°C 37.9°F3.3°C 66% 3.6 mph NW5.8 kmh NW 8.0 mph12.9 kmh 29.63 in1003.4 mb 0.00 in0.0 mm 0.00 in/hr0.0 mm/hr 0.00 in0.0 mm
02:40 AM 48.8°F9.3°C 37.9°F3.3°C 66% 2.9 mph N4.7 kmh N 5.0 mph8.0 kmh 29.63 in1003.4 mb 0.00 in0.0 mm 0.00 in/hr0.0 mm/hr 0.00 in0.0 mm
02:30 AM 48.7°F9.3°C 37.8°F3.2°C 66% 3.2 mph NW5.1 kmh NW 5.0 mph8.0 kmh 29.63 in1003.4 mb 0.00 in0.0 mm 0.00 in/hr0.0 mm/hr 0.00 in0.0 mm
02:20 AM 48.7°F9.3°C 37.8°F3.2°C 66% 1.5 mph S2.4 kmh S 8.0 mph12.9 kmh 29.63 in1003.4 mb 0.00 in0.0 mm 0.00 in/hr0.0 mm/hr 0.00 in0.0 mm
02:10 AM 48.8°F9.3°C 37.6°F3.1°C 65% 4.2 mph NNW6.8 kmh NNW 6.0 mph9.7 kmh 29.63 in1003.4 mb 0.00 in0.0 mm 0.00 in/hr0.0 mm/hr 0.00 in0.0 mm
02:00 AM 48.8°F9.3°C 37.9°F3.3°C 66% 2.4 mph NW3.9 kmh NW 7.0 mph11.3 kmh 29.63 in1003.4 mb 0.00 in0.0 mm 0.00 in/hr0.0 mm/hr 0.00 in0.0 mm
01:50 AM 48.9°F9.4°C 37.6°F3.1°C 65% 3.4 mph WNW5.5 kmh WNW 5.0 mph8.0 kmh 29.64 in1003.7 mb 0.00 in0.0 mm 0.00 in/hr0.0 mm/hr 0.00 in0.0 mm
01:40 AM 48.7°F9.3°C 37.5°F3.1°C 65% 7.1 mph NW11.4 kmh NW 13.0 mph20.9 kmh 29.64 in1003.7 mb 0.00 in0.0 mm 0.00 in/hr0.0 mm/hr 0.00 in0.0 mm
01:30 AM 48.6°F9.2°C 37.7°F3.2°C 66% 3.5 mph N5.6 kmh N 9.0 mph14.5 kmh 29.64 in1003.7 mb 0.00 in0.0 mm 0.00 in/hr0.0 mm/hr 0.00 in0.0 mm
01:20 AM 48.5°F9.2°C 37.7°F3.2°C 66% 2.3 mph WSW3.7 kmh WSW 9.0 mph14.5 kmh 29.64 in1003.7 mb 0.00 in0.0 mm 0.00 in/hr0.0 mm/hr 0.00 in0.0 mm
01:10 AM 48.7°F9.3°C 37.8°F3.2°C 66% 2.7 mph N4.3 kmh N 12.0 mph19.3 kmh 29.64 in1003.7 mb 0.00 in0.0 mm 0.00 in/hr0.0 mm/hr 0.00 in0.0 mm
01:00 AM 48.7°F9.3°C 37.8°F3.2°C 66% 7.3 mph N11.7 kmh N 15.0 mph24.1 kmh 29.64 in1003.7 mb 0.00 in0.0 mm 0.00 in/hr0.0 mm/hr 0.00 in0.0 mm
12:50 AM 48.7°F9.3°C 38.2°F3.4°C 67% 2.6 mph WNW4.2 kmh WNW 5.0 mph8.0 kmh 29.63 in1003.4 mb 0.00 in0.0 mm 0.00 in/hr0.0 mm/hr 0.00 in0.0 mm
12:40 AM 49.0°F9.4°C 38.9°F3.8°C 68% Calm Calm 1.0 mph1.6 kmh 29.63 in1003.4 mb 0.00 in0.0 mm 0.00 in/hr0.0 mm/hr 0.00 in0.0 mm
12:30 AM 49.3°F9.6°C 38.8°F3.8°C 67% 2.1 mph NNW3.4 kmh NNW 6.0 mph9.7 kmh 29.63 in1003.4 mb 0.00 in0.0 mm 0.00 in/hr0.0 mm/hr 0.00 in0.0 mm
12:20 AM 49.6°F9.8°C 38.7°F3.7°C 66% 5.9 mph WNW9.5 kmh WNW 10.0 mph16.1 kmh 29.64 in1003.7 mb 0.00 in0.0 mm 0.00 in/hr0.0 mm/hr 0.00 in0.0 mm
12:10 AM 50.0°F10.0°C 39.1°F3.9°C 66% 3.6 mph NW5.8 kmh NW 6.0 mph9.7 kmh 29.63 in1003.4 mb 0.00 in0.0 mm 0.00 in/hr0.0 mm/hr 0.00 in0.0 mm
12:00 AM 50.4°F10.2°C 39.1°F3.9°C 65% 6.5 mph NW10.5 kmh NW 8.0 mph12.9 kmh 29.63 in1003.4 mb 0.00 in0.0 mm 0.00 in/hr0.0 mm/hr 0.00 in0.0 mm